Time;durP1;ratioP1;P1;durP2;ratioP2;P2;SDS_P1;SDS_P2;PMS_P1;PMS_P2;Temp;Humidity;BMP_temperature;BMP_pressure;BME280_temperature;BME280_humidity;BME280_pressure;Samples;Min_cycle;Max_cycle;Signal;HPM_P1;HPM_P2
2022/06/21 00:00:50;;;;;;;6.17;3.30;;;;;;;;;;5134538;28;20572;-69
2022/06/21 00:03:18;;;;;;;6.17;2.90;;;;;;;;;;5134164;28;20486;-69
2022/06/21 00:05:46;;;;;;;5.00;3.73;;;;;;;;;;5134286;28;21023;-69
2022/06/21 00:08:15;;;;;;;4.40;3.10;;;;;;;;;;5134466;28;20521;-68
2022/06/21 00:10:42;;;;;;;4.93;3.50;;;;;;;;;;5134469;28;20488;-69
2022/06/21 00:13:11;;;;;;;8.40;3.20;;;;;;;;;;5134363;28;20521;-68
2022/06/21 00:15:39;;;;;;;11.80;4.37;;;;;;;;;;5134118;28;20958;-69
2022/06/21 00:18:10;;;;;;;7.50;3.27;;;;;;;;;;5133919;28;20447;-69
2022/06/21 00:20:37;;;;;;;9.43;3.03;;;;;;;;;;5134632;28;20466;-69
2022/06/21 00:23:05;;;;;;;7.53;3.70;;;;;;;;;;5134323;28;20517;-69
2022/06/21 00:25:33;;;;;;;5.10;2.83;;;;;;;;;;5134567;28;20837;-69
2022/06/21 00:28:00;;;;;;;8.13;3.43;;;;;;;;;;5134338;28;20450;-69
2022/06/21 00:30:28;;;;;;;4.80;3.50;;;;;;;;;;5133890;28;20536;-69
2022/06/21 00:32:56;;;;;;;6.23;4.10;;;;;;;;;;5134273;28;20525;-69
2022/06/21 00:35:25;;;;;;;9.03;3.13;;;;;;;;;;5134152;28;20530;-69
2022/06/21 00:37:53;;;;;;;8.00;4.10;;;;;;;;;;5134248;28;20564;-69
2022/06/21 00:40:22;;;;;;;8.67;3.20;;;;;;;;;;5134152;28;20521;-69
2022/06/21 00:42:53;;;;;;;8.07;3.43;;;;;;;;;;5134583;28;20488;-69
2022/06/21 00:45:25;;;;;;;10.10;3.50;;;;;;;;;;5133760;28;20458;-69
2022/06/21 00:47:53;;;;;;;10.67;3.37;;;;;;;;;;5133771;28;20529;-68
2022/06/21 00:50:23;;;;;;;9.53;4.07;;;;;;;;;;5133799;28;20461;-69
2022/06/21 00:52:56;;;;;;;9.70;4.03;;;;;;;;;;5133771;28;20954;-69
2022/06/21 00:55:29;;;;;;;7.80;3.70;;;;;;;;;;5134020;28;20517;-69
2022/06/21 00:57:56;;;;;;;8.67;3.70;;;;;;;;;;5134225;28;20785;-69
2022/06/21 01:00:26;;;;;;;4.73;3.47;;;;;;;;;;5134180;28;20487;-69
2022/06/21 01:02:53;;;;;;;5.77;3.13;;;;;;;;;;5133899;28;20474;-69
2022/06/21 01:05:21;;;;;;;4.83;3.33;;;;;;;;;;5134142;27;20936;-69
2022/06/21 01:07:48;;;;;;;25.77;4.77;;;;;;;;;;5137363;27;20457;-69
2022/06/21 01:10:18;;;;;;;7.30;3.30;;;;;;;;;;5137236;27;20533;-69
2022/06/21 01:12:47;;;;;;;7.23;3.50;;;;;;;;;;5137550;27;20548;-69
2022/06/21 01:15:17;;;;;;;7.27;3.47;;;;;;;;;;5137089;27;20537;-69
2022/06/21 01:17:45;;;;;;;6.33;3.97;;;;;;;;;;5137852;27;20461;-69
2022/06/21 01:20:13;;;;;;;6.20;3.60;;;;;;;;;;5137042;27;20535;-69
2022/06/21 01:22:45;;;;;;;5.83;4.20;;;;;;;;;;5137310;27;20560;-68
2022/06/21 01:25:33;;;;;;;8.57;4.00;;;;;;;;;;5137259;27;20513;-68
2022/06/21 01:28:02;;;;;;;5.20;4.60;;;;;;;;;;5130556;27;20447;-68
2022/06/21 01:30:30;;;;;;;7.73;4.97;;;;;;;;;;5136827;27;20441;-68
2022/06/21 01:32:58;;;;;;;7.43;4.67;;;;;;;;;;5137214;27;20470;-68
2022/06/21 01:35:28;;;;;;;5.40;3.90;;;;;;;;;;5137110;27;20440;-68
2022/06/21 01:37:56;;;;;;;9.70;4.80;;;;;;;;;;5137241;27;20426;-68
2022/06/21 01:40:26;;;;;;;7.23;3.90;;;;;;;;;;5136990;27;20434;-68
2022/06/21 01:42:55;;;;;;;9.23;5.13;;;;;;;;;;5137355;27;20474;-68
2022/06/21 01:45:26;;;;;;;9.47;4.07;;;;;;;;;;5136755;27;20618;-68
2022/06/21 01:47:58;;;;;;;7.60;4.93;;;;;;;;;;5136925;27;20892;-68
2022/06/21 01:50:25;;;;;;;11.07;6.00;;;;;;;;;;5136669;27;20501;-68
2022/06/21 01:52:53;;;;;;;5.73;4.10;;;;;;;;;;5137261;27;20473;-68
2022/06/21 01:55:24;;;;;;;6.33;4.20;;;;;;;;;;5136928;27;20858;-68
2022/06/21 01:57:52;;;;;;;10.60;4.60;;;;;;;;;;5137176;27;20855;-69
2022/06/21 02:00:19;;;;;;;8.13;3.77;;;;;;;;;;5136569;27;20442;-69
2022/06/21 02:02:49;;;;;;;15.23;5.40;;;;;;;;;;5136588;27;20564;-69
2022/06/21 02:05:18;;;;;;;4.60;4.20;;;;;;;;;;5136800;27;20434;-68
2022/06/21 02:07:47;;;;;;;7.50;4.07;;;;;;;;;;5137086;27;20529;-68
2022/06/21 02:10:18;;;;;;;16.63;4.50;;;;;;;;;;5136227;27;20796;-68
2022/06/21 02:12:48;;;;;;;5.83;4.03;;;;;;;;;;5136249;27;20997;-68
2022/06/21 02:15:21;;;;;;;11.70;4.53;;;;;;;;;;5135971;27;20952;-67
2022/06/21 02:17:50;;;;;;;5.10;3.80;;;;;;;;;;5136217;27;20544;-68
2022/06/21 02:20:20;;;;;;;5.70;4.67;;;;;;;;;;5136533;27;20463;-68
2022/06/21 02:22:47;;;;;;;8.00;4.47;;;;;;;;;;5135832;27;20483;-68
2022/06/21 02:25:16;;;;;;;6.77;5.43;;;;;;;;;;5136022;27;20434;-68
2022/06/21 02:27:43;;;;;;;6.30;4.70;;;;;;;;;;5136202;27;20429;-68
2022/06/21 02:30:15;;;;;;;9.07;4.83;;;;;;;;;;5135613;27;20469;-68
2022/06/21 02:32:42;;;;;;;8.60;4.63;;;;;;;;;;5136236;27;20505;-68
2022/06/21 02:35:16;;;;;;;8.03;5.37;;;;;;;;;;5135759;27;20525;-68
2022/06/21 02:37:45;;;;;;;7.60;6.20;;;;;;;;;;5135679;27;20915;-68
2022/06/21 02:40:18;;;;;;;6.13;5.53;;;;;;;;;;5135486;27;20492;-69
2022/06/21 02:42:47;;;;;;;11.03;6.17;;;;;;;;;;5136269;27;20466;-68
2022/06/21 02:45:20;;;;;;;7.10;5.17;;;;;;;;;;5135349;27;20524;-68
2022/06/21 02:47:49;;;;;;;10.03;6.37;;;;;;;;;;5135937;27;20533;-69
2022/06/21 02:50:25;;;;;;;5.60;5.10;;;;;;;;;;5135735;27;20469;-67
2022/06/21 02:52:55;;;;;;;11.57;5.50;;;;;;;;;;5135690;27;20432;-68
2022/06/21 02:55:32;;;;;;;15.93;6.27;;;;;;;;;;5135958;27;20418;-68
2022/06/21 02:58:02;;;;;;;7.83;6.07;;;;;;;;;;5135596;27;20517;-68
2022/06/21 03:00:29;;;;;;;10.87;6.10;;;;;;;;;;5135533;27;20525;-68
2022/06/21 03:02:59;;;;;;;8.07;6.33;;;;;;;;;;5135578;27;20473;-70
2022/06/21 03:05:29;;;;;;;8.00;5.70;;;;;;;;;;5136087;27;20516;-69
2022/06/21 03:07:59;;;;;;;8.33;6.53;;;;;;;;;;5135331;27;20525;-68
2022/06/21 03:10:27;;;;;;;8.93;6.63;;;;;;;;;;5135427;27;20524;-69
2022/06/21 03:13:00;;;;;;;9.73;6.20;;;;;;;;;;5135250;27;20499;-68
2022/06/21 03:15:27;;;;;;;7.47;6.77;;;;;;;;;;5134973;27;20642;-68
2022/06/21 03:17:58;;;;;;;8.13;6.57;;;;;;;;;;5135778;27;20536;-69
2022/06/21 03:20:25;;;;;;;18.33;7.40;;;;;;;;;;5135234;27;20457;-69
2022/06/21 03:22:55;;;;;;;8.90;6.10;;;;;;;;;;5135038;27;20622;-69
2022/06/21 03:25:24;;;;;;;6.00;5.40;;;;;;;;;;5135219;27;20513;-69
2022/06/21 03:27:52;;;;;;;12.80;6.67;;;;;;;;;;5134882;27;20998;-69
2022/06/21 03:30:20;;;;;;;7.23;6.40;;;;;;;;;;5134479;27;20521;-69
2022/06/21 03:32:47;;;;;;;9.60;7.07;;;;;;;;;;5134927;27;20443;-69
2022/06/21 03:35:15;;;;;;;11.97;6.67;;;;;;;;;;5135304;27;20864;-69
2022/06/21 03:37:44;;;;;;;6.90;6.20;;;;;;;;;;5134670;27;20434;-69
2022/06/21 03:43:00;;;;;;;11.57;5.80;;;;;;;;;;5092632;27;20465;-68
2022/06/21 03:45:31;;;;;;;7.90;6.07;;;;;;;;;;5134796;27;20533;-69
2022/06/21 03:48:09;;;;;;;7.10;6.40;;;;;;;;;;5134839;27;20441;-69
2022/06/21 03:50:38;;;;;;;9.90;6.72;;;;;;;;;;5135195;27;20465;-67
2022/06/21 03:53:08;;;;;;;7.90;6.07;;;;;;;;;;5134584;27;20196;-67
2022/06/21 03:55:43;;;;;;;10.30;6.53;;;;;;;;;;5134400;27;20462;-67
2022/06/21 03:58:14;;;;;;;12.77;6.83;;;;;;;;;;5135014;27;20457;-66
2022/06/21 04:00:45;;;;;;;14.73;7.78;;;;;;;;;;5133428;27;20529;-66
2022/06/21 04:03:15;;;;;;;11.37;6.50;;;;;;;;;;5134413;28;20208;-66
2022/06/21 04:05:47;;;;;;;7.27;6.67;;;;;;;;;;5134179;28;20512;-66
2022/06/21 04:08:17;;;;;;;8.63;5.57;;;;;;;;;;5134416;28;20430;-67
2022/06/21 04:10:49;;;;;;;10.40;6.33;;;;;;;;;;5134918;28;20524;-67
2022/06/21 04:13:20;;;;;;;9.60;7.07;;;;;;;;;;5134074;28;20516;-66
2022/06/21 04:15:49;;;;;;;8.17;5.80;;;;;;;;;;5133988;28;20533;-67
2022/06/21 04:18:21;;;;;;;7.77;5.07;;;;;;;;;;5133899;28;20461;-66
2022/06/21 04:20:52;;;;;;;10.40;5.43;;;;;;;;;;5134903;28;20505;-67
2022/06/21 04:23:23;;;;;;;12.63;5.40;;;;;;;;;;5134264;28;20901;-66
2022/06/21 04:25:54;;;;;;;7.00;4.80;;;;;;;;;;5134407;28;20433;-66
2022/06/21 04:28:24;;;;;;;6.70;5.07;;;;;;;;;;5134242;28;20855;-66
2022/06/21 04:30:53;;;;;;;10.97;5.40;;;;;;;;;;5133974;28;20920;-66
2022/06/21 04:33:23;;;;;;;10.40;5.43;;;;;;;;;;5134086;28;20442;-66
2022/06/21 04:35:52;;;;;;;6.80;4.83;;;;;;;;;;5133923;28;20510;-66
2022/06/21 04:38:24;;;;;;;5.83;4.50;;;;;;;;;;5134234;28;20437;-67
2022/06/21 04:40:54;;;;;;;7.00;4.70;;;;;;;;;;5136890;27;20422;-67
2022/06/21 04:43:23;;;;;;;5.50;5.00;;;;;;;;;;5137922;27;20513;-66
2022/06/21 04:45:54;;;;;;;8.93;6.50;;;;;;;;;;5137985;27;20470;-66
2022/06/21 04:48:27;;;;;;;10.30;5.23;;;;;;;;;;5138143;27;20548;-66
2022/06/21 04:50:57;;;;;;;12.80;5.33;;;;;;;;;;5137686;27;20509;-66
2022/06/21 04:53:28;;;;;;;4.53;4.13;;;;;;;;;;5137998;27;20513;-66
2022/06/21 04:56:01;;;;;;;8.70;4.30;;;;;;;;;;5137913;27;20450;-66
2022/06/21 04:58:29;;;;;;;7.43;4.67;;;;;;;;;;5138194;27;20514;-67
2022/06/21 05:00:56;;;;;;;4.37;3.97;;;;;;;;;;5137842;27;20503;-67
2022/06/21 05:03:30;;;;;;;9.70;3.73;;;;;;;;;;5137264;27;20475;-67
2022/06/21 05:05:58;;;;;;;5.77;3.63;;;;;;;;;;5137685;27;20872;-67
2022/06/21 05:08:25;;;;;;;6.47;3.40;;;;;;;;;;5137796;27;20470;-67
2022/06/21 05:10:55;;;;;;;8.60;3.50;;;;;;;;;;5137562;27;20482;-67
2022/06/21 05:13:26;;;;;;;8.53;3.53;;;;;;;;;;5137148;27;20450;-67
2022/06/21 05:15:54;;;;;;;7.83;4.77;;;;;;;;;;5137172;27;20477;-66
2022/06/21 05:18:23;;;;;;;12.37;5.13;;;;;;;;;;5137404;27;20516;-67
2022/06/21 05:20:52;;;;;;;9.57;4.73;;;;;;;;;;5137155;27;20511;-67
2022/06/21 05:23:20;;;;;;;9.03;4.50;;;;;;;;;;5137900;27;20486;-66
2022/06/21 05:25:48;;;;;;;11.93;6.70;;;;;;;;;;5137025;27;20448;-66
2022/06/21 05:28:17;;;;;;;8.20;4.83;;;;;;;;;;5137356;27;20525;-66
2022/06/21 05:30:47;;;;;;;5.57;5.03;;;;;;;;;;5137189;27;21000;-68
2022/06/21 05:33:17;;;;;;;9.37;5.77;;;;;;;;;;5137782;27;20470;-67
2022/06/21 05:35:44;;;;;;;6.97;5.30;;;;;;;;;;5137586;27;20868;-67
2022/06/21 05:38:13;;;;;;;5.03;4.30;;;;;;;;;;5136981;27;20443;-66
2022/06/21 05:40:43;;;;;;;8.87;4.53;;;;;;;;;;5137261;27;21036;-66
2022/06/21 05:43:14;;;;;;;16.07;6.50;;;;;;;;;;5136589;27;20484;-66
2022/06/21 05:45:44;;;;;;;10.13;5.80;;;;;;;;;;5137024;27;20836;-66
2022/06/21 05:48:18;;;;;;;9.97;5.10;;;;;;;;;;5136638;27;20538;-67
2022/06/21 05:50:45;;;;;;;13.50;7.33;;;;;;;;;;5136937;27;20838;-66
2022/06/21 05:53:14;;;;;;;9.37;5.57;;;;;;;;;;5136199;27;20451;-66
2022/06/21 05:55:44;;;;;;;14.53;4.80;;;;;;;;;;5136482;27;20445;-65
2022/06/21 05:58:17;;;;;;;15.53;5.40;;;;;;;;;;5137230;27;20520;-66
2022/06/21 06:00:47;;;;;;;11.73;4.73;;;;;;;;;;5136901;27;20798;-65
2022/06/21 06:03:19;;;;;;;10.30;5.60;;;;;;;;;;5136568;27;20580;-65
2022/06/21 06:05:47;;;;;;;12.13;6.07;;;;;;;;;;5136423;27;20454;-65
2022/06/21 06:08:16;;;;;;;12.53;5.40;;;;;;;;;;5136832;27;20473;-66
2022/06/21 06:10:44;;;;;;;9.53;4.53;;;;;;;;;;5136144;27;20442;-66
2022/06/21 06:13:14;;;;;;;9.70;4.27;;;;;;;;;;5136284;27;20781;-66
2022/06/21 06:15:43;;;;;;;9.60;4.57;;;;;;;;;;5136138;27;20519;-65
2022/06/21 06:18:14;;;;;;;6.93;4.30;;;;;;;;;;5136010;27;20501;-65
2022/06/21 06:20:46;;;;;;;9.73;3.83;;;;;;;;;;5136357;27;20514;-66
2022/06/21 06:23:25;;;;;;;9.23;4.20;;;;;;;;;;5136190;27;20477;-67
2022/06/21 06:25:55;;;;;;;13.17;4.00;;;;;;;;;;5135889;27;20426;-67
2022/06/21 06:28:25;;;;;;;7.83;3.40;;;;;;;;;;5135836;27;20520;-66
2022/06/21 06:30:55;;;;;;;4.33;3.27;;;;;;;;;;5135814;27;20493;-66
2022/06/21 06:33:25;;;;;;;7.47;3.10;;;;;;;;;;5135618;27;20933;-66
2022/06/21 06:35:56;;;;;;;11.33;3.90;;;;;;;;;;5135647;27;20526;-67
2022/06/21 06:38:24;;;;;;;13.17;3.73;;;;;;;;;;5135782;27;20895;-66
2022/06/21 06:40:53;;;;;;;10.23;4.80;;;;;;;;;;5135559;27;20534;-67
2022/06/21 06:43:24;;;;;;;11.07;3.50;;;;;;;;;;5135643;27;20484;-67
2022/06/21 06:45:52;;;;;;;10.63;3.63;;;;;;;;;;5135434;27;20427;-67
2022/06/21 06:48:23;;;;;;;7.97;3.73;;;;;;;;;;5136098;27;20448;-67
2022/06/21 06:50:54;;;;;;;9.67;4.10;;;;;;;;;;5135964;27;20474;-68
2022/06/21 06:53:27;;;;;;;6.43;3.13;;;;;;;;;;5136054;27;20439;-66
2022/06/21 06:55:57;;;;;;;12.23;3.80;;;;;;;;;;5135869;27;20423;-67
2022/06/21 06:58:28;;;;;;;9.13;3.23;;;;;;;;;;5135140;27;20523;-66
2022/06/21 07:00:56;;;;;;;8.23;3.27;;;;;;;;;;5135176;27;20465;-67
2022/06/21 07:03:25;;;;;;;10.27;3.40;;;;;;;;;;5134366;27;20908;-66
2022/06/21 07:05:55;;;;;;;10.30;3.30;;;;;;;;;;5135958;27;20444;-67
2022/06/21 07:08:27;;;;;;;15.93;4.00;;;;;;;;;;5134968;27;20529;-66
2022/06/21 07:10:56;;;;;;;8.20;3.53;;;;;;;;;;5135838;27;20548;-67
2022/06/21 07:13:24;;;;;;;15.90;2.83;;;;;;;;;;5135228;27;20497;-67
2022/06/21 07:15:52;;;;;;;9.70;2.70;;;;;;;;;;5135070;27;20441;-67
2022/06/21 07:18:24;;;;;;;9.73;3.10;;;;;;;;;;5135589;27;20534;-67
2022/06/21 07:20:51;;;;;;;3.83;2.30;;;;;;;;;;5134792;27;20504;-66
2022/06/21 07:23:20;;;;;;;7.90;3.13;;;;;;;;;;5134663;27;20568;-67
2022/06/21 07:25:51;;;;;;;6.97;2.90;;;;;;;;;;5134591;27;20446;-67
2022/06/21 07:28:21;;;;;;;7.30;2.63;;;;;;;;;;5135277;27;20436;-67
2022/06/21 07:30:49;;;;;;;8.10;2.70;;;;;;;;;;5135301;27;20476;-67
2022/06/21 07:33:20;;;;;;;13.10;3.47;;;;;;;;;;5136069;27;20442;-67
2022/06/21 07:35:50;;;;;;;9.53;3.27;;;;;;;;;;5134778;27;20525;-67
2022/06/21 07:38:20;;;;;;;11.43;2.90;;;;;;;;;;5135018;27;20509;-67
2022/06/21 07:40:51;;;;;;;11.40;3.43;;;;;;;;;;5134879;27;20501;-66
2022/06/21 07:43:21;;;;;;;6.13;3.83;;;;;;;;;;5135135;27;20557;-67
2022/06/21 07:45:50;;;;;;;13.27;2.87;;;;;;;;;;5134989;27;20462;-67
2022/06/21 07:48:19;;;;;;;8.83;2.90;;;;;;;;;;5134412;27;20474;-67
2022/06/21 07:50:48;;;;;;;5.57;2.57;;;;;;;;;;5134246;27;20888;-67
2022/06/21 07:53:18;;;;;;;6.27;2.87;;;;;;;;;;5134697;27;20524;-67
2022/06/21 07:55:48;;;;;;;5.53;2.47;;;;;;;;;;5134794;27;20425;-66
2022/06/21 07:58:19;;;;;;;7.20;2.70;;;;;;;;;;5134307;27;20438;-67
2022/06/21 08:09:14;;;;;;;7.20;2.90;;;;;;;;;;5134429;28;20435;-67
2022/06/21 08:11:43;;;;;;;5.20;2.90;;;;;;;;;;5134134;28;20462;-65
2022/06/21 08:14:12;;;;;;;7.50;2.57;;;;;;;;;;5134623;27;20452;-65
2022/06/21 08:16:43;;;;;;;7.90;2.33;;;;;;;;;;5138325;27;20784;-67
2022/06/21 08:19:13;;;;;;;7.60;2.33;;;;;;;;;;5138512;27;20436;-67
2022/06/21 08:21:43;;;;;;;6.60;3.17;;;;;;;;;;5138503;27;20443;-66
2022/06/21 08:24:12;;;;;;;7.00;2.30;;;;;;;;;;5138283;27;20498;-67
2022/06/21 08:26:41;;;;;;;7.13;2.70;;;;;;;;;;5138422;27;20841;-67
2022/06/21 08:29:10;;;;;;;7.70;3.10;;;;;;;;;;5139006;27;20449;-67
2022/06/21 08:31:40;;;;;;;5.40;2.30;;;;;;;;;;5138330;27;20445;-66
2022/06/21 08:34:09;;;;;;;4.87;2.50;;;;;;;;;;5138603;27;20470;-66
2022/06/21 08:36:38;;;;;;;5.23;2.73;;;;;;;;;;5138246;27;20438;-67
2022/06/21 08:39:08;;;;;;;5.63;2.30;;;;;;;;;;5137995;27;20500;-67
2022/06/21 08:41:53;;;;;;;8.87;3.50;;;;;;;;;;5138169;27;20785;-67
2022/06/21 08:44:38;;;;;;;5.20;2.50;;;;;;;;;;5137875;27;20470;-67
2022/06/21 08:47:24;;;;;;;8.57;3.03;;;;;;;;;;5137786;27;20486;-67
2022/06/21 08:50:15;;;;;;;4.70;2.33;;;;;;;;;;5137683;27;20475;-66
2022/06/21 08:52:52;;;;;;;11.30;4.40;;;;;;;;;;5117290;27;20969;-66
2022/06/21 08:55:24;;;;;;;12.73;2.97;;;;;;;;;;5137837;27;20429;-66
2022/06/21 08:57:56;;;;;;;7.30;2.57;;;;;;;;;;5138577;27;20840;-66
2022/06/21 09:00:33;;;;;;;4.50;2.27;;;;;;;;;;5138165;27;20426;-66
2022/06/21 09:03:10;;;;;;;6.77;2.53;;;;;;;;;;5137863;27;20422;-67
2022/06/21 09:05:50;;;;;;;6.87;2.70;;;;;;;;;;5137914;27;20530;-67
2022/06/21 09:08:31;;;;;;;6.97;2.30;;;;;;;;;;5137778;27;20419;-67
2022/06/21 09:11:11;;;;;;;4.90;2.43;;;;;;;;;;5137868;27;20467;-67
2022/06/21 09:13:48;;;;;;;6.60;2.60;;;;;;;;;;5137327;27;20484;-66
2022/06/21 09:16:19;;;;;;;5.93;2.40;;;;;;;;;;5137617;27;20458;-66
2022/06/21 09:19:06;;;;;;;7.23;3.43;;;;;;;;;;5137200;27;20443;-66
2022/06/21 09:21:43;;;;;;;3.13;2.83;;;;;;;;;;5137726;27;20447;-66
2022/06/21 09:24:18;;;;;;;5.97;2.40;;;;;;;;;;5137123;27;20552;-66
2022/06/21 09:26:47;;;;;;;4.93;2.20;;;;;;;;;;5136268;27;20474;-66
2022/06/21 09:29:20;;;;;;;6.70;2.00;;;;;;;;;;5137302;27;20541;-66
2022/06/21 09:31:54;;;;;;;8.17;4.00;;;;;;;;;;5136930;27;20514;-66
2022/06/21 09:34:25;;;;;;;14.80;2.77;;;;;;;;;;5136997;27;20456;-66
2022/06/21 09:36:57;;;;;;;6.33;2.33;;;;;;;;;;5136847;27;20510;-66
2022/06/21 09:39:30;;;;;;;9.60;2.67;;;;;;;;;;5136888;27;20526;-66
2022/06/21 09:42:00;;;;;;;7.93;3.20;;;;;;;;;;5136778;27;20463;-66
2022/06/21 09:44:30;;;;;;;12.37;4.37;;;;;;;;;;5136647;27;20995;-66
2022/06/21 09:47:02;;;;;;;9.47;2.73;;;;;;;;;;5137143;27;20521;-66
2022/06/21 09:49:35;;;;;;;5.23;2.67;;;;;;;;;;5137531;27;20493;-66
2022/06/21 09:52:05;;;;;;;8.00;3.00;;;;;;;;;;5136890;27;20431;-66
2022/06/21 09:54:35;;;;;;;8.57;3.63;;;;;;;;;;5136866;27;20428;-66
2022/06/21 09:57:18;;;;;;;6.93;4.00;;;;;;;;;;5136749;27;20436;-66
2022/06/21 09:59:48;;;;;;;8.17;3.97;;;;;;;;;;5134777;27;20452;-67
2022/06/21 10:02:20;;;;;;;6.80;3.50;;;;;;;;;;5136590;27;20858;-66
2022/06/21 10:04:54;;;;;;;7.20;3.53;;;;;;;;;;5137266;27;20821;-67
2022/06/21 10:07:27;;;;;;;16.60;3.70;;;;;;;;;;5136498;27;20911;-66
2022/06/21 10:10:03;;;;;;;14.70;3.57;;;;;;;;;;5137066;27;20514;-66
2022/06/21 10:12:36;;;;;;;9.43;3.70;;;;;;;;;;5136467;27;20522;-66
2022/06/21 10:15:22;;;;;;;4.10;2.90;;;;;;;;;;5136124;27;20483;-66
2022/06/21 10:17:59;;;;;;;6.13;2.90;;;;;;;;;;5136091;27;20530;-66
2022/06/21 10:20:41;;;;;;;7.97;3.63;;;;;;;;;;5136069;27;20972;-67
2022/06/21 10:23:16;;;;;;;7.20;3.57;;;;;;;;;;5119675;27;20834;-68
2022/06/21 10:25:54;;;;;;;6.33;3.37;;;;;;;;;;5135996;27;21078;-66
2022/06/21 10:28:39;;;;;;;4.70;3.10;;;;;;;;;;5135810;27;20436;-65
2022/06/21 10:31:15;;;;;;;6.73;3.00;;;;;;;;;;5135824;27;20475;-65
2022/06/21 10:33:52;;;;;;;10.00;3.03;;;;;;;;;;5136116;27;20503;-65
2022/06/21 10:36:26;;;;;;;5.70;3.00;;;;;;;;;;5136059;27;20507;-65
2022/06/21 10:39:02;;;;;;;2.90;1.90;;;;;;;;;;5135964;27;20461;-65
2022/06/21 10:41:40;;;;;;;5.00;3.20;;;;;;;;;;5135986;27;20429;-65
2022/06/21 10:44:25;;;;;;;3.87;1.93;;;;;;;;;;5135839;27;20474;-65
2022/06/21 10:46:54;;;;;;;4.77;2.50;;;;;;;;;;5135642;27;20534;-65
2022/06/21 10:49:35;;;;;;;4.67;3.33;;;;;;;;;;5135665;27;20519;-66
2022/06/21 10:52:12;;;;;;;6.27;2.60;;;;;;;;;;5135375;27;20537;-65
2022/06/21 10:54:50;;;;;;;10.60;2.17;;;;;;;;;;5135422;27;20435;-66
2022/06/21 10:57:22;;;;;;;3.67;2.00;;;;;;;;;;5136172;27;20420;-67
2022/06/21 11:02:59;;;;;;;3.90;2.13;;;;;;;;;;5135374;27;20392;-66
2022/06/21 11:05:31;;;;;;;2.87;1.50;;;;;;;;;;5135647;27;20519;-65
2022/06/21 11:08:03;;;;;;;5.60;1.87;;;;;;;;;;5135094;27;20897;-65
2022/06/21 11:10:33;;;;;;;4.53;1.63;;;;;;;;;;5135161;27;20519;-66
2022/06/21 11:13:06;;;;;;;4.20;1.80;;;;;;;;;;5135237;27;20532;-65
2022/06/21 11:15:51;;;;;;;2.37;1.73;;;;;;;;;;5135750;27;20430;-65
2022/06/21 11:18:23;;;;;;;6.97;2.00;;;;;;;;;;5135265;27;20492;-65
2022/06/21 11:21:02;;;;;;;5.80;2.10;;;;;;;;;;5135254;27;20507;-65
2022/06/21 11:23:34;;;;;;;3.20;2.00;;;;;;;;;;5135114;27;20512;-65
2022/06/21 11:26:05;;;;;;;5.20;2.27;;;;;;;;;;5134876;27;20893;-65
2022/06/21 11:28:37;;;;;;;3.30;2.40;;;;;;;;;;5134931;27;20429;-65
2022/06/21 11:31:09;;;;;;;3.10;2.10;;;;;;;;;;5135082;27;20423;-65
2022/06/21 11:33:40;;;;;;;2.63;1.63;;;;;;;;;;5134645;27;20459;-65
2022/06/21 11:36:12;;;;;;;6.57;1.50;;;;;;;;;;5134950;27;20426;-65
2022/06/21 11:38:47;;;;;;;3.63;1.97;;;;;;;;;;5135006;27;20487;-65
2022/06/21 11:42:04;;;;;;;8.47;1.97;;;;;;;;;;5135443;27;20501;-65
2022/06/21 11:44:14;;;;;;;9.13;2.20;;;;;;;;;;5134063;27;20433;-65
2022/06/21 11:46:42;;;;;;;4.50;1.70;;;;;;;;;;5134727;27;20528;-65
2022/06/21 11:49:29;;;;;;;4.20;1.80;;;;;;;;;;5133818;27;20525;-66
2022/06/21 11:52:14;;;;;;;2.77;1.83;;;;;;;;;;5134609;27;20479;-66
2022/06/21 11:54:44;;;;;;;6.37;2.40;;;;;;;;;;5134870;27;20459;-66
2022/06/21 11:57:17;;;;;;;7.97;1.77;;;;;;;;;;5134806;27;20843;-66
2022/06/21 11:59:47;;;;;;;5.03;1.77;;;;;;;;;;5135028;27;20433;-65
2022/06/21 12:02:19;;;;;;;3.73;1.53;;;;;;;;;;5134538;27;20518;-65
2022/06/21 12:04:50;;;;;;;7.53;2.00;;;;;;;;;;5134417;28;20470;-65
2022/06/21 12:07:21;;;;;;;1.70;1.60;;;;;;;;;;5134927;28;20517;-65
2022/06/21 12:09:51;;;;;;;5.30;1.60;;;;;;;;;;5134535;28;20505;-66
2022/06/21 12:12:25;;;;;;;6.63;1.77;;;;;;;;;;5134479;28;20435;-65
2022/06/21 12:15:02;;;;;;;4.77;2.23;;;;;;;;;;5134149;28;21002;-66
2022/06/21 12:17:41;;;;;;;7.00;1.63;;;;;;;;;;5134513;28;20446;-66
2022/06/21 12:20:14;;;;;;;2.80;1.50;;;;;;;;;;5134684;28;20418;-66
2022/06/21 12:22:45;;;;;;;2.20;2.00;;;;;;;;;;5134779;28;20485;-66
2022/06/21 12:25:16;;;;;;;13.50;2.87;;;;;;;;;;5134453;28;20563;-66
2022/06/21 12:27:44;;;;;;;6.67;2.27;;;;;;;;;;5134169;28;20441;-66
2022/06/21 12:30:18;;;;;;;5.00;1.83;;;;;;;;;;5134017;28;21005;-66
2022/06/21 12:32:45;;;;;;;4.53;1.80;;;;;;;;;;5134529;28;20499;-66
2022/06/21 12:35:15;;;;;;;2.77;1.70;;;;;;;;;;5135027;28;20493;-66
2022/06/21 12:37:44;;;;;;;2.80;1.57;;;;;;;;;;5133896;28;20477;-66
2022/06/21 12:40:20;;;;;;;4.00;1.67;;;;;;;;;;5133740;28;20536;-66
2022/06/21 12:43:08;;;;;;;5.50;1.80;;;;;;;;;;5134005;28;20423;-66
2022/06/21 12:45:44;;;;;;;2.40;1.60;;;;;;;;;;5099769;28;20483;-66
2022/06/21 12:48:27;;;;;;;3.53;1.73;;;;;;;;;;5134868;28;20558;-66
2022/06/21 12:50:56;;;;;;;5.27;1.73;;;;;;;;;;5134245;27;20559;-69
2022/06/21 12:53:31;;;;;;;4.00;2.03;;;;;;;;;;5133657;28;20942;-70
2022/06/21 12:56:02;;;;;;;3.00;1.50;;;;;;;;;;5134126;28;20433;-71
2022/06/21 12:58:36;;;;;;;5.30;1.33;;;;;;;;;;5133749;28;20906;-72
2022/06/21 13:01:06;;;;;;;6.00;3.70;;;;;;;;;;5133759;27;20427;-70
2022/06/21 13:03:49;;;;;;;3.17;2.30;;;;;;;;;;5137852;27;20434;-70
2022/06/21 13:06:29;;;;;;;3.87;1.80;;;;;;;;;;5120977;27;20572;-71
2022/06/21 13:09:04;;;;;;;2.67;2.00;;;;;;;;;;5137677;27;20452;-71
2022/06/21 13:11:40;;;;;;;4.57;1.90;;;;;;;;;;5136040;27;20474;-71
2022/06/21 13:14:25;;;;;;;2.13;1.90;;;;;;;;;;5137481;27;20856;-71
2022/06/21 13:16:58;;;;;;;3.57;2.00;;;;;;;;;;5137158;27;20453;-72
2022/06/21 13:19:34;;;;;;;5.20;1.87;;;;;;;;;;5136773;27;20436;-71
2022/06/21 13:22:11;;;;;;;8.03;2.00;;;;;;;;;;5137157;27;20546;-71
2022/06/21 13:24:45;;;;;;;4.67;1.80;;;;;;;;;;5137403;27;20496;-72
2022/06/21 13:27:19;;;;;;;5.07;2.00;;;;;;;;;;5137071;27;20466;-72
2022/06/21 13:29:53;;;;;;;4.60;1.70;;;;;;;;;;5136865;27;20991;-71
2022/06/21 13:32:25;;;;;;;6.00;1.63;;;;;;;;;;5137453;27;20430;-71
2022/06/21 13:34:54;;;;;;;2.37;1.43;;;;;;;;;;5137878;27;20485;-71
2022/06/21 13:37:23;;;;;;;3.80;1.63;;;;;;;;;;5137292;27;20439;-71
2022/06/21 13:39:55;;;;;;;3.87;1.90;;;;;;;;;;5137030;27;20444;-72
2022/06/21 13:42:40;;;;;;;4.80;2.70;;;;;;;;;;5137057;27;20429;-72
2022/06/21 13:45:14;;;;;;;6.67;1.90;;;;;;;;;;5136599;27;20999;-72
2022/06/21 13:47:46;;;;;;;1.60;1.50;;;;;;;;;;5136618;27;20484;-71
2022/06/21 13:50:16;;;;;;;3.03;1.90;;;;;;;;;;5136860;27;20563;-72
2022/06/21 13:52:48;;;;;;;2.60;1.70;;;;;;;;;;5137070;27;20527;-72
2022/06/21 13:55:19;;;;;;;2.63;1.80;;;;;;;;;;5136631;27;20432;-73
2022/06/21 13:57:51;;;;;;;4.17;1.90;;;;;;;;;;5136410;27;20960;-71
2022/06/21 14:00:19;;;;;;;4.80;2.07;;;;;;;;;;5136867;27;20463;-71
2022/06/21 14:02:52;;;;;;;4.43;2.43;;;;;;;;;;5136230;27;20450;-71
2022/06/21 14:05:25;;;;;;;3.80;2.00;;;;;;;;;;5136124;27;20503;-72
2022/06/21 14:07:56;;;;;;;4.80;2.33;;;;;;;;;;5136664;27;20504;-71
2022/06/21 14:10:25;;;;;;;2.70;1.87;;;;;;;;;;5136373;27;20456;-73
2022/06/21 14:12:56;;;;;;;3.70;2.00;;;;;;;;;;5135685;27;20476;-74
2022/06/21 14:15:27;;;;;;;4.87;1.87;;;;;;;;;;5136257;27;20424;-73
2022/06/21 14:17:59;;;;;;;2.23;1.73;;;;;;;;;;5136544;27;20559;-73
2022/06/21 14:20:30;;;;;;;3.63;1.80;;;;;;;;;;5136398;27;20429;-75
2022/06/21 14:23:02;;;;;;;4.00;1.73;;;;;;;;;;5135878;27;20962;-74
2022/06/21 14:25:32;;;;;;;7.10;2.00;;;;;;;;;;5136067;27;20502;-75
2022/06/21 14:28:05;;;;;;;5.63;1.60;;;;;;;;;;5135672;27;20440;-71
2022/06/21 14:30:36;;;;;;;3.23;1.80;;;;;;;;;;5136442;27;20510;-72
2022/06/21 14:33:10;;;;;;;4.17;1.70;;;;;;;;;;5136066;27;20414;-74
2022/06/21 14:35:39;;;;;;;3.83;2.40;;;;;;;;;;5135533;27;20463;-74
2022/06/21 14:38:09;;;;;;;3.23;1.67;;;;;;;;;;5136297;27;20455;-70
2022/06/21 14:40:40;;;;;;;2.60;1.63;;;;;;;;;;5135518;27;20793;-69
2022/06/21 14:43:11;;;;;;;2.70;2.03;;;;;;;;;;5136140;27;20427;-68
2022/06/21 14:45:42;;;;;;;3.63;1.77;;;;;;;;;;5135532;27;20870;-71
2022/06/21 14:48:16;;;;;;;5.03;1.70;;;;;;;;;;5136445;27;20450;-68
2022/06/21 14:50:45;;;;;;;2.77;2.13;;;;;;;;;;5135867;27;20970;-71
2022/06/21 14:53:32;;;;;;;4.20;1.70;;;;;;;;;;5135554;27;20534;-71
2022/06/21 14:56:07;;;;;;;4.10;1.83;;;;;;;;;;5135061;27;20524;-73
2022/06/21 14:58:41;;;;;;;4.77;2.20;;;;;;;;;;5135236;27;20437;-72
2022/06/21 15:01:12;;;;;;;3.23;1.87;;;;;;;;;;5135347;27;20967;-72
2022/06/21 15:03:45;;;;;;;5.00;2.20;;;;;;;;;;5135340;27;20847;-72
2022/06/21 15:06:17;;;;;;;3.83;1.63;;;;;;;;;;5135109;27;20472;-71
2022/06/21 15:08:48;;;;;;;5.87;1.90;;;;;;;;;;5135707;27;20512;-72
2022/06/21 15:11:19;;;;;;;4.47;1.83;;;;;;;;;;5135115;27;20468;-72
2022/06/21 15:13:48;;;;;;;3.67;1.90;;;;;;;;;;5135253;27;20499;-71
2022/06/21 15:16:17;;;;;;;3.80;1.83;;;;;;;;;;5134964;27;20535;-72
2022/06/21 15:18:53;;;;;;;4.17;1.90;;;;;;;;;;5134756;27;20541;-71
2022/06/21 15:21:24;;;;;;;4.17;2.23;;;;;;;;;;5135056;27;20499;-70